sensor_id;sensor_type;location;lat;lon;timestamp;temperature;humidity
52187;DHT22;38161;53.020;6.598;2023-03-14T00:00:33;9.20;99.90
52187;DHT22;38161;53.020;6.598;2023-03-14T00:02:58;9.20;99.90
52187;DHT22;38161;53.020;6.598;2023-03-14T00:05:24;9.20;99.90
52187;DHT22;38161;53.020;6.598;2023-03-14T00:07:50;9.30;99.90
52187;DHT22;38161;53.020;6.598;2023-03-14T00:10:16;9.30;99.90
52187;DHT22;38161;53.020;6.598;2023-03-14T00:12:43;9.30;99.90
52187;DHT22;38161;53.020;6.598;2023-03-14T00:15:09;9.40;99.90
52187;DHT22;38161;53.020;6.598;2023-03-14T00:17:35;9.40;99.90
52187;DHT22;38161;53.020;6.598;2023-03-14T00:20:02;9.40;99.90
52187;DHT22;38161;53.020;6.598;2023-03-14T00:22:38;9.50;99.90
52187;DHT22;38161;53.020;6.598;2023-03-14T00:25:05;9.60;99.90
52187;DHT22;38161;53.020;6.598;2023-03-14T00:27:31;9.70;99.90
52187;DHT22;38161;53.020;6.598;2023-03-14T00:29:57;9.70;99.90
52187;DHT22;38161;53.020;6.598;2023-03-14T00:32:23;9.80;99.90
52187;DHT22;38161;53.020;6.598;2023-03-14T00:34:49;9.80;99.90
52187;DHT22;38161;53.020;6.598;2023-03-14T00:37:15;9.90;99.90
52187;DHT22;38161;53.020;6.598;2023-03-14T00:39:41;9.90;99.90
52187;DHT22;38161;53.020;6.598;2023-03-14T00:42:07;10.10;99.90
52187;DHT22;38161;53.020;6.598;2023-03-14T00:44:33;10.10;99.90
52187;DHT22;38161;53.020;6.598;2023-03-14T00:46:58;10.10;99.90
52187;DHT22;38161;53.020;6.598;2023-03-14T00:49:24;10.20;99.90
52187;DHT22;38161;53.020;6.598;2023-03-14T00:51:50;10.10;99.90
52187;DHT22;38161;53.020;6.598;2023-03-14T00:54:17;10.10;99.90
52187;DHT22;38161;53.020;6.598;2023-03-14T00:56:43;10.10;99.90
52187;DHT22;38161;53.020;6.598;2023-03-14T00:59:09;10.10;99.90
52187;DHT22;38161;53.020;6.598;2023-03-14T01:01:35;10.10;99.90
52187;DHT22;38161;53.020;6.598;2023-03-14T01:04:00;10.20;99.90
52187;DHT22;38161;53.020;6.598;2023-03-14T01:06:28;10.20;99.90
52187;DHT22;38161;53.020;6.598;2023-03-14T01:08:54;10.10;99.90
52187;DHT22;38161;53.020;6.598;2023-03-14T01:11:22;10.20;99.90
52187;DHT22;38161;53.020;6.598;2023-03-14T01:13:48;10.20;99.90
52187;DHT22;38161;53.020;6.598;2023-03-14T01:16:15;10.20;99.90
52187;DHT22;38161;53.020;6.598;2023-03-14T01:18:43;10.20;99.90
52187;DHT22;38161;53.020;6.598;2023-03-14T01:21:19;10.30;99.90
52187;DHT22;38161;53.020;6.598;2023-03-14T01:23:46;10.30;99.90
52187;DHT22;38161;53.020;6.598;2023-03-14T01:26:14;10.30;99.90
52187;DHT22;38161;53.020;6.598;2023-03-14T01:28:40;10.30;99.90
52187;DHT22;38161;53.020;6.598;2023-03-14T01:31:08;10.30;99.90
52187;DHT22;38161;53.020;6.598;2023-03-14T01:33:35;10.30;99.90
52187;DHT22;38161;53.020;6.598;2023-03-14T01:36:02;10.20;99.90
52187;DHT22;38161;53.020;6.598;2023-03-14T01:38:29;10.30;99.90
52187;DHT22;38161;53.020;6.598;2023-03-14T01:40:55;10.30;99.90
52187;DHT22;38161;53.020;6.598;2023-03-14T01:43:21;10.30;99.90
52187;DHT22;38161;53.020;6.598;2023-03-14T01:48:44;10.30;99.90
52187;DHT22;38161;53.020;6.598;2023-03-14T01:51:29;10.30;99.90
52187;DHT22;38161;53.020;6.598;2023-03-14T01:54:02;10.20;99.90
52187;DHT22;38161;53.020;6.598;2023-03-14T01:56:30;10.20;99.90
52187;DHT22;38161;53.020;6.598;2023-03-14T01:58:58;10.20;99.90
52187;DHT22;38161;53.020;6.598;2023-03-14T02:01:25;10.20;99.90
52187;DHT22;38161;53.020;6.598;2023-03-14T02:03:54;10.20;99.90
52187;DHT22;38161;53.020;6.598;2023-03-14T02:06:24;10.10;99.90
52187;DHT22;38161;53.020;6.598;2023-03-14T02:08:52;10.10;99.90
52187;DHT22;38161;53.020;6.598;2023-03-14T02:11:18;10.10;99.90
52187;DHT22;38161;53.020;6.598;2023-03-14T02:13:44;10.00;99.90
52187;DHT22;38161;53.020;6.598;2023-03-14T02:16:10;10.00;99.90
52187;DHT22;38161;53.020;6.598;2023-03-14T02:18:36;10.00;99.90
52187;DHT22;38161;53.020;6.598;2023-03-14T02:21:09;10.00;99.90
52187;DHT22;38161;53.020;6.598;2023-03-14T02:26:43;10.00;99.90
52187;DHT22;38161;53.020;6.598;2023-03-14T02:29:10;10.00;99.90
52187;DHT22;38161;53.020;6.598;2023-03-14T02:31:36;10.00;99.90
52187;DHT22;38161;53.020;6.598;2023-03-14T02:34:02;10.00;99.90
52187;DHT22;38161;53.020;6.598;2023-03-14T02:36:29;10.00;99.90
52187;DHT22;38161;53.020;6.598;2023-03-14T02:39:07;9.90;99.90
52187;DHT22;38161;53.020;6.598;2023-03-14T02:41:33;9.90;99.90
52187;DHT22;38161;53.020;6.598;2023-03-14T02:43:59;9.90;99.90
52187;DHT22;38161;53.020;6.598;2023-03-14T02:46:25;9.90;99.90
52187;DHT22;38161;53.020;6.598;2023-03-14T02:48:58;9.90;99.90
52187;DHT22;38161;53.020;6.598;2023-03-14T02:51:27;9.90;99.90
52187;DHT22;38161;53.020;6.598;2023-03-14T02:53:54;9.80;99.90
52187;DHT22;38161;53.020;6.598;2023-03-14T02:56:20;9.90;99.90
52187;DHT22;38161;53.020;6.598;2023-03-14T02:58:46;9.80;99.90
52187;DHT22;38161;53.020;6.598;2023-03-14T03:01:11;9.80;99.90
52187;DHT22;38161;53.020;6.598;2023-03-14T03:03:37;9.80;99.90
52187;DHT22;38161;53.020;6.598;2023-03-14T03:06:03;9.80;99.90
52187;DHT22;38161;53.020;6.598;2023-03-14T03:08:29;9.70;99.90
52187;DHT22;38161;53.020;6.598;2023-03-14T03:10:57;9.60;99.90
52187;DHT22;38161;53.020;6.598;2023-03-14T03:13:22;9.60;99.90
52187;DHT22;38161;53.020;6.598;2023-03-14T03:15:48;9.60;99.90
52187;DHT22;38161;53.020;6.598;2023-03-14T03:18:14;9.60;99.90
52187;DHT22;38161;53.020;6.598;2023-03-14T03:20:40;9.50;99.90
52187;DHT22;38161;53.020;6.598;2023-03-14T03:23:06;9.50;99.90
52187;DHT22;38161;53.020;6.598;2023-03-14T03:25:32;9.40;99.90
52187;DHT22;38161;53.020;6.598;2023-03-14T03:27:58;9.40;99.90
52187;DHT22;38161;53.020;6.598;2023-03-14T03:30:24;9.40;99.90
52187;DHT22;38161;53.020;6.598;2023-03-14T03:32:50;9.30;99.90
52187;DHT22;38161;53.020;6.598;2023-03-14T03:35:16;9.30;99.90
52187;DHT22;38161;53.020;6.598;2023-03-14T03:37:41;9.30;99.90
52187;DHT22;38161;53.020;6.598;2023-03-14T03:40:08;9.20;99.90
52187;DHT22;38161;53.020;6.598;2023-03-14T03:42:35;9.20;99.90
52187;DHT22;38161;53.020;6.598;2023-03-14T03:45:01;9.20;99.90
52187;DHT22;38161;53.020;6.598;2023-03-14T03:47:27;9.20;99.90
52187;DHT22;38161;53.020;6.598;2023-03-14T03:49:53;9.20;99.90
52187;DHT22;38161;53.020;6.598;2023-03-14T03:52:19;9.20;99.90
52187;DHT22;38161;53.020;6.598;2023-03-14T03:54:46;9.10;99.90
52187;DHT22;38161;53.020;6.598;2023-03-14T03:57:11;9.10;99.90
52187;DHT22;38161;53.020;6.598;2023-03-14T03:59:37;9.10;99.90
52187;DHT22;38161;53.020;6.598;2023-03-14T04:02:05;9.00;99.90
52187;DHT22;38161;53.020;6.598;2023-03-14T04:04:31;9.00;99.90
52187;DHT22;38161;53.020;6.598;2023-03-14T04:06:57;9.00;99.90
52187;DHT22;38161;53.020;6.598;2023-03-14T04:09:22;9.00;99.90
52187;DHT22;38161;53.020;6.598;2023-03-14T04:11:48;8.90;99.90
52187;DHT22;38161;53.020;6.598;2023-03-14T04:14:14;8.90;99.90
52187;DHT22;38161;53.020;6.598;2023-03-14T04:16:40;8.90;99.90
52187;DHT22;38161;53.020;6.598;2023-03-14T04:19:05;8.90;99.90
52187;DHT22;38161;53.020;6.598;2023-03-14T04:21:31;8.90;99.90
52187;DHT22;38161;53.020;6.598;2023-03-14T04:23:57;8.80;99.90
52187;DHT22;38161;53.020;6.598;2023-03-14T04:26:23;8.80;99.90
52187;DHT22;38161;53.020;6.598;2023-03-14T04:28:49;8.80;99.90
52187;DHT22;38161;53.020;6.598;2023-03-14T04:31:20;8.80;99.90
52187;DHT22;38161;53.020;6.598;2023-03-14T04:33:46;8.80;99.90
52187;DHT22;38161;53.020;6.598;2023-03-14T04:36:13;8.80;99.90
52187;DHT22;38161;53.020;6.598;2023-03-14T04:38:39;8.70;99.90
52187;DHT22;38161;53.020;6.598;2023-03-14T04:41:05;8.70;99.90
52187;DHT22;38161;53.020;6.598;2023-03-14T04:43:32;8.70;99.90
52187;DHT22;38161;53.020;6.598;2023-03-14T04:45:58;8.70;99.90
52187;DHT22;38161;53.020;6.598;2023-03-14T04:48:25;8.70;99.90
52187;DHT22;38161;53.020;6.598;2023-03-14T04:50:51;8.70;99.90
52187;DHT22;38161;53.020;6.598;2023-03-14T04:53:17;8.70;99.90
52187;DHT22;38161;53.020;6.598;2023-03-14T04:55:53;8.70;99.90
52187;DHT22;38161;53.020;6.598;2023-03-14T04:58:20;8.70;99.90
52187;DHT22;38161;53.020;6.598;2023-03-14T05:00:46;8.70;99.90
52187;DHT22;38161;53.020;6.598;2023-03-14T05:03:12;8.70;99.90
52187;DHT22;38161;53.020;6.598;2023-03-14T05:05:39;8.70;99.90
52187;DHT22;38161;53.020;6.598;2023-03-14T05:08:05;8.70;99.90
52187;DHT22;38161;53.020;6.598;2023-03-14T05:10:31;8.70;99.90
52187;DHT22;38161;53.020;6.598;2023-03-14T05:12:56;8.70;99.90
52187;DHT22;38161;53.020;6.598;2023-03-14T05:15:22;8.70;99.90
52187;DHT22;38161;53.020;6.598;2023-03-14T05:17:48;8.70;99.90
52187;DHT22;38161;53.020;6.598;2023-03-14T05:20:14;8.70;99.90
52187;DHT22;38161;53.020;6.598;2023-03-14T05:22:41;8.70;99.90
52187;DHT22;38161;53.020;6.598;2023-03-14T05:25:08;8.70;99.90
52187;DHT22;38161;53.020;6.598;2023-03-14T05:27:34;8.70;99.90
52187;DHT22;38161;53.020;6.598;2023-03-14T05:30:00;8.70;99.90
52187;DHT22;38161;53.020;6.598;2023-03-14T05:32:26;8.70;99.90
52187;DHT22;38161;53.020;6.598;2023-03-14T05:34:52;8.70;99.90
52187;DHT22;38161;53.020;6.598;2023-03-14T05:37:18;8.70;99.90
52187;DHT22;38161;53.020;6.598;2023-03-14T05:39:43;8.60;99.90
52187;DHT22;38161;53.020;6.598;2023-03-14T05:42:09;8.60;99.90
52187;DHT22;38161;53.020;6.598;2023-03-14T05:44:35;8.50;99.90
52187;DHT22;38161;53.020;6.598;2023-03-14T05:47:00;8.50;99.90
52187;DHT22;38161;53.020;6.598;2023-03-14T05:49:26;8.50;99.90
52187;DHT22;38161;53.020;6.598;2023-03-14T05:51:52;8.50;99.90
52187;DHT22;38161;53.020;6.598;2023-03-14T05:54:18;8.40;99.90
52187;DHT22;38161;53.020;6.598;2023-03-14T05:56:43;8.40;99.90
52187;DHT22;38161;53.020;6.598;2023-03-14T05:59:09;8.40;99.90
52187;DHT22;38161;53.020;6.598;2023-03-14T06:01:35;8.40;99.90
52187;DHT22;38161;53.020;6.598;2023-03-14T06:04:01;8.40;99.90
52187;DHT22;38161;53.020;6.598;2023-03-14T06:06:27;8.40;99.90
52187;DHT22;38161;53.020;6.598;2023-03-14T06:08:52;8.40;99.90
52187;DHT22;38161;53.020;6.598;2023-03-14T06:11:18;8.40;99.90
52187;DHT22;38161;53.020;6.598;2023-03-14T06:13:44;8.40;99.90
52187;DHT22;38161;53.020;6.598;2023-03-14T06:16:10;8.30;99.90
52187;DHT22;38161;53.020;6.598;2023-03-14T06:18:36;8.40;99.90
52187;DHT22;38161;53.020;6.598;2023-03-14T06:21:01;8.40;99.90
52187;DHT22;38161;53.020;6.598;2023-03-14T06:23:27;8.40;99.90
52187;DHT22;38161;53.020;6.598;2023-03-14T06:25:56;8.40;99.90
52187;DHT22;38161;53.020;6.598;2023-03-14T06:28:21;8.40;99.90
52187;DHT22;38161;53.020;6.598;2023-03-14T06:30:47;8.30;99.90
52187;DHT22;38161;53.020;6.598;2023-03-14T06:33:14;8.40;99.90
52187;DHT22;38161;53.020;6.598;2023-03-14T06:35:40;8.40;99.90
52187;DHT22;38161;53.020;6.598;2023-03-14T06:38:05;8.40;99.90
52187;DHT22;38161;53.020;6.598;2023-03-14T06:40:31;8.40;99.90
52187;DHT22;38161;53.020;6.598;2023-03-14T06:42:57;8.30;99.90
52187;DHT22;38161;53.020;6.598;2023-03-14T06:45:23;8.30;99.90
52187;DHT22;38161;53.020;6.598;2023-03-14T06:47:49;8.30;99.90
52187;DHT22;38161;53.020;6.598;2023-03-14T06:50:14;8.20;99.90
52187;DHT22;38161;53.020;6.598;2023-03-14T06:52:40;8.20;99.90
52187;DHT22;38161;53.020;6.598;2023-03-14T06:55:11;8.20;99.90
52187;DHT22;38161;53.020;6.598;2023-03-14T06:57:37;8.20;99.90
52187;DHT22;38161;53.020;6.598;2023-03-14T07:00:04;8.20;99.90
52187;DHT22;38161;53.020;6.598;2023-03-14T07:02:30;8.20;99.90
52187;DHT22;38161;53.020;6.598;2023-03-14T07:04:56;8.20;99.90
52187;DHT22;38161;53.020;6.598;2023-03-14T07:07:21;8.00;99.90
52187;DHT22;38161;53.020;6.598;2023-03-14T07:09:47;7.70;99.90
52187;DHT22;38161;53.020;6.598;2023-03-14T07:12:13;7.50;99.90
52187;DHT22;38161;53.020;6.598;2023-03-14T07:14:39;7.30;99.90
52187;DHT22;38161;53.020;6.598;2023-03-14T07:17:04;7.20;99.90
52187;DHT22;38161;53.020;6.598;2023-03-14T07:19:30;7.00;99.90
52187;DHT22;38161;53.020;6.598;2023-03-14T07:21:56;6.90;99.90
52187;DHT22;38161;53.020;6.598;2023-03-14T07:24:22;6.80;99.90
52187;DHT22;38161;53.020;6.598;2023-03-14T07:26:48;6.60;99.90
52187;DHT22;38161;53.020;6.598;2023-03-14T07:29:14;6.40;99.90
52187;DHT22;38161;53.020;6.598;2023-03-14T07:31:40;6.30;99.90
52187;DHT22;38161;53.020;6.598;2023-03-14T07:34:05;6.10;99.90
52187;DHT22;38161;53.020;6.598;2023-03-14T07:36:31;6.00;99.90
52187;DHT22;38161;53.020;6.598;2023-03-14T07:38:57;5.90;99.90
52187;DHT22;38161;53.020;6.598;2023-03-14T07:41:23;5.80;99.90
52187;DHT22;38161;53.020;6.598;2023-03-14T07:43:49;5.70;99.90
52187;DHT22;38161;53.020;6.598;2023-03-14T07:46:15;5.60;99.90
52187;DHT22;38161;53.020;6.598;2023-03-14T07:48:41;5.50;99.90
52187;DHT22;38161;53.020;6.598;2023-03-14T07:51:07;5.40;99.90
52187;DHT22;38161;53.020;6.598;2023-03-14T07:53:33;5.40;99.90
52187;DHT22;38161;53.020;6.598;2023-03-14T07:55:59;5.30;99.90
52187;DHT22;38161;53.020;6.598;2023-03-14T07:58:24;5.30;99.90
52187;DHT22;38161;53.020;6.598;2023-03-14T08:00:51;5.20;99.90
52187;DHT22;38161;53.020;6.598;2023-03-14T08:03:17;5.10;99.90
52187;DHT22;38161;53.020;6.598;2023-03-14T08:05:46;5.00;99.90
52187;DHT22;38161;53.020;6.598;2023-03-14T08:08:12;5.00;99.90
52187;DHT22;38161;53.020;6.598;2023-03-14T08:10:38;5.00;99.90
52187;DHT22;38161;53.020;6.598;2023-03-14T08:13:03;5.00;99.90
52187;DHT22;38161;53.020;6.598;2023-03-14T08:15:30;4.90;99.90
52187;DHT22;38161;53.020;6.598;2023-03-14T08:17:56;4.90;99.90
52187;DHT22;38161;53.020;6.598;2023-03-14T08:20:24;4.90;99.90
52187;DHT22;38161;53.020;6.598;2023-03-14T08:22:50;4.90;99.90
52187;DHT22;38161;53.020;6.598;2023-03-14T08:25:16;4.90;99.90
52187;DHT22;38161;53.020;6.598;2023-03-14T08:27:42;4.90;99.90
52187;DHT22;38161;53.020;6.598;2023-03-14T08:30:13;4.90;99.90
52187;DHT22;38161;53.020;6.598;2023-03-14T08:32:41;4.90;99.90
52187;DHT22;38161;53.020;6.598;2023-03-14T08:35:08;4.90;99.90
52187;DHT22;38161;53.020;6.598;2023-03-14T08:37:35;4.90;99.90
52187;DHT22;38161;53.020;6.598;2023-03-14T08:40:03;5.00;99.90
52187;DHT22;38161;53.020;6.598;2023-03-14T08:42:33;5.10;99.90
52187;DHT22;38161;53.020;6.598;2023-03-14T08:44:59;5.10;99.90
52187;DHT22;38161;53.020;6.598;2023-03-14T08:47:25;5.20;99.90
52187;DHT22;38161;53.020;6.598;2023-03-14T08:49:51;5.20;99.90
52187;DHT22;38161;53.020;6.598;2023-03-14T08:52:17;5.30;99.90
52187;DHT22;38161;53.020;6.598;2023-03-14T08:54:46;5.30;99.90
52187;DHT22;38161;53.020;6.598;2023-03-14T08:57:12;5.30;99.90
52187;DHT22;38161;53.020;6.598;2023-03-14T08:59:38;5.30;99.90
52187;DHT22;38161;53.020;6.598;2023-03-14T09:02:04;5.30;99.90
52187;DHT22;38161;53.020;6.598;2023-03-14T09:04:30;5.30;99.90
52187;DHT22;38161;53.020;6.598;2023-03-14T09:06:56;5.30;99.90
52187;DHT22;38161;53.020;6.598;2023-03-14T09:09:24;5.40;99.90
52187;DHT22;38161;53.020;6.598;2023-03-14T09:11:50;5.30;99.90
52187;DHT22;38161;53.020;6.598;2023-03-14T09:14:16;5.40;99.90
52187;DHT22;38161;53.020;6.598;2023-03-14T09:16:41;5.40;99.90
52187;DHT22;38161;53.020;6.598;2023-03-14T09:19:07;5.40;99.90
52187;DHT22;38161;53.020;6.598;2023-03-14T09:21:33;5.50;99.90
52187;DHT22;38161;53.020;6.598;2023-03-14T09:23:59;5.60;99.90
52187;DHT22;38161;53.020;6.598;2023-03-14T09:26:24;5.60;99.90
52187;DHT22;38161;53.020;6.598;2023-03-14T09:28:50;5.60;99.90
52187;DHT22;38161;53.020;6.598;2023-03-14T09:31:16;5.70;99.90
52187;DHT22;38161;53.020;6.598;2023-03-14T09:33:41;5.70;99.90
52187;DHT22;38161;53.020;6.598;2023-03-14T09:36:08;5.70;99.90
52187;DHT22;38161;53.020;6.598;2023-03-14T09:38:34;5.80;99.90
52187;DHT22;38161;53.020;6.598;2023-03-14T09:41:01;5.80;99.90
52187;DHT22;38161;53.020;6.598;2023-03-14T09:43:30;5.80;99.90
52187;DHT22;38161;53.020;6.598;2023-03-14T09:45:58;5.80;99.90
52187;DHT22;38161;53.020;6.598;2023-03-14T09:48:30;5.90;99.90
52187;DHT22;38161;53.020;6.598;2023-03-14T09:50:58;5.80;99.90
52187;DHT22;38161;53.020;6.598;2023-03-14T09:53:28;5.90;99.90
52187;DHT22;38161;53.020;6.598;2023-03-14T09:55:58;6.80;99.90
52187;DHT22;38161;53.020;6.598;2023-03-14T09:58:24;5.80;99.90
52187;DHT22;38161;53.020;6.598;2023-03-14T10:00:54;5.80;99.90
52187;DHT22;38161;53.020;6.598;2023-03-14T10:03:29;5.80;99.90
52187;DHT22;38161;53.020;6.598;2023-03-14T10:05:56;5.80;99.90
52187;DHT22;38161;53.020;6.598;2023-03-14T10:08:22;5.80;99.90
52187;DHT22;38161;53.020;6.598;2023-03-14T10:10:48;5.80;99.90
52187;DHT22;38161;53.020;6.598;2023-03-14T10:13:20;5.90;99.90
52187;DHT22;38161;53.020;6.598;2023-03-14T10:16:03;6.00;99.90
52187;DHT22;38161;53.020;6.598;2023-03-14T10:18:32;6.00;99.90
52187;DHT22;38161;53.020;6.598;2023-03-14T10:23:33;6.10;99.90
52187;DHT22;38161;53.020;6.598;2023-03-14T10:26:26;6.10;99.90
52187;DHT22;38161;53.020;6.598;2023-03-14T10:28:54;6.10;99.90
52187;DHT22;38161;53.020;6.598;2023-03-14T10:31:26;6.10;99.90
52187;DHT22;38161;53.020;6.598;2023-03-14T10:34:05;6.10;99.90
52187;DHT22;38161;53.020;6.598;2023-03-14T10:36:33;6.00;99.90
52187;DHT22;38161;53.020;6.598;2023-03-14T10:39:24;6.00;99.90
52187;DHT22;38161;53.020;6.598;2023-03-14T10:42:27;6.10;99.90
52187;DHT22;38161;53.020;6.598;2023-03-14T10:45:04;6.20;99.90
52187;DHT22;38161;53.020;6.598;2023-03-14T10:47:33;6.20;99.90
52187;DHT22;38161;53.020;6.598;2023-03-14T10:50:22;6.30;99.90
52187;DHT22;38161;53.020;6.598;2023-03-14T10:52:49;6.30;99.90
52187;DHT22;38161;53.020;6.598;2023-03-14T10:55:17;6.30;99.90
52187;DHT22;38161;53.020;6.598;2023-03-14T10:57:43;6.40;99.90
52187;DHT22;38161;53.020;6.598;2023-03-14T11:00:18;6.60;99.90
52187;DHT22;38161;53.020;6.598;2023-03-14T11:03:04;6.80;99.90
52187;DHT22;38161;53.020;6.598;2023-03-14T11:08:57;7.30;99.90
52187;DHT22;38161;53.020;6.598;2023-03-14T11:11:31;7.70;99.90
52187;DHT22;38161;53.020;6.598;2023-03-14T11:16:52;7.80;99.90
52187;DHT22;38161;53.020;6.598;2023-03-14T11:21:58;7.40;99.90
52187;DHT22;38161;53.020;6.598;2023-03-14T11:30:19;8.10;99.90
52187;DHT22;38161;53.020;6.598;2023-03-14T11:35:34;8.50;99.90
52187;DHT22;38161;53.020;6.598;2023-03-14T11:40:56;8.10;99.90
52187;DHT22;38161;53.020;6.598;2023-03-14T11:43:30;7.80;99.90
52187;DHT22;38161;53.020;6.598;2023-03-14T11:46:05;7.70;99.90
52187;DHT22;38161;53.020;6.598;2023-03-14T11:48:45;7.50;99.90
52187;DHT22;38161;53.020;6.598;2023-03-14T11:51:24;7.50;99.90
52187;DHT22;38161;53.020;6.598;2023-03-14T11:53:54;7.90;99.90
52187;DHT22;38161;53.020;6.598;2023-03-14T11:56:31;8.40;99.90
52187;DHT22;38161;53.020;6.598;2023-03-14T11:59:03;9.10;99.90
52187;DHT22;38161;53.020;6.598;2023-03-14T12:01:44;9.30;99.90
52187;DHT22;38161;53.020;6.598;2023-03-14T12:07:06;9.10;99.90
52187;DHT22;38161;53.020;6.598;2023-03-14T12:09:35;9.30;99.90
52187;DHT22;38161;53.020;6.598;2023-03-14T12:12:02;9.60;99.90
52187;DHT22;38161;53.020;6.598;2023-03-14T12:14:34;9.80;99.90
52187;DHT22;38161;53.020;6.598;2023-03-14T12:17:21;10.10;99.90
52187;DHT22;38161;53.020;6.598;2023-03-14T12:19:59;10.20;99.90
52187;DHT22;38161;53.020;6.598;2023-03-14T12:22:27;10.60;99.90
52187;DHT22;38161;53.020;6.598;2023-03-14T12:25:18;10.60;99.90
52187;DHT22;38161;53.020;6.598;2023-03-14T12:30:34;10.30;99.90
52187;DHT22;38161;53.020;6.598;2023-03-14T12:35:37;9.50;99.90
52187;DHT22;38161;53.020;6.598;2023-03-14T12:41:27;9.60;99.90
52187;DHT22;38161;53.020;6.598;2023-03-14T12:43:55;9.90;99.90
52187;DHT22;38161;53.020;6.598;2023-03-14T12:46:26;9.90;99.90
52187;DHT22;38161;53.020;6.598;2023-03-14T12:51:36;9.40;99.90
52187;DHT22;38161;53.020;6.598;2023-03-14T12:54:56;8.90;99.90
52187;DHT22;38161;53.020;6.598;2023-03-14T12:59:54;9.00;99.90
52187;DHT22;38161;53.020;6.598;2023-03-14T13:02:48;9.20;99.90
52187;DHT22;38161;53.020;6.598;2023-03-14T13:05:21;9.80;99.90
52187;DHT22;38161;53.020;6.598;2023-03-14T13:17:56;10.80;99.90
52187;DHT22;38161;53.020;6.598;2023-03-14T13:20:34;10.80;99.90
52187;DHT22;38161;53.020;6.598;2023-03-14T13:23:00;10.70;99.90
52187;DHT22;38161;53.020;6.598;2023-03-14T13:25:32;10.70;99.90
52187;DHT22;38161;53.020;6.598;2023-03-14T13:27:58;10.50;99.90
52187;DHT22;38161;53.020;6.598;2023-03-14T13:30:27;10.60;99.90
52187;DHT22;38161;53.020;6.598;2023-03-14T13:32:53;10.50;99.90
52187;DHT22;38161;53.020;6.598;2023-03-14T13:35:26;10.00;99.90
52187;DHT22;38161;53.020;6.598;2023-03-14T13:38:00;9.60;99.90
52187;DHT22;38161;53.020;6.598;2023-03-14T13:40:34;9.60;99.90
52187;DHT22;38161;53.020;6.598;2023-03-14T13:43:10;9.60;99.90
52187;DHT22;38161;53.020;6.598;2023-03-14T13:48:15;9.50;99.90
52187;DHT22;38161;53.020;6.598;2023-03-14T13:50:45;9.40;99.90
52187;DHT22;38161;53.020;6.598;2023-03-14T13:53:12;9.60;99.90
52187;DHT22;38161;53.020;6.598;2023-03-14T13:55:38;10.20;99.90
52187;DHT22;38161;53.020;6.598;2023-03-14T13:58:04;10.70;99.90
52187;DHT22;38161;53.020;6.598;2023-03-14T14:00:29;11.00;99.90
52187;DHT22;38161;53.020;6.598;2023-03-14T14:02:57;10.70;99.40
52187;DHT22;38161;53.020;6.598;2023-03-14T14:05:27;10.30;99.90
52187;DHT22;38161;53.020;6.598;2023-03-14T14:07:53;9.90;99.90
52187;DHT22;38161;53.020;6.598;2023-03-14T14:10:20;9.40;99.90
52187;DHT22;38161;53.020;6.598;2023-03-14T14:12:55;9.00;99.90
52187;DHT22;38161;53.020;6.598;2023-03-14T14:15:26;8.70;99.90
52187;DHT22;38161;53.020;6.598;2023-03-14T14:17:56;8.80;99.90
52187;DHT22;38161;53.020;6.598;2023-03-14T14:22:57;8.60;99.90
52187;DHT22;38161;53.020;6.598;2023-03-14T14:25:24;8.30;99.90
52187;DHT22;38161;53.020;6.598;2023-03-14T14:27:50;8.10;99.90
52187;DHT22;38161;53.020;6.598;2023-03-14T14:32:49;8.10;99.90
52187;DHT22;38161;53.020;6.598;2023-03-14T14:35:30;8.00;99.90
52187;DHT22;38161;53.020;6.598;2023-03-14T14:37:56;7.80;99.90
52187;DHT22;38161;53.020;6.598;2023-03-14T14:40:25;7.70;99.90
52187;DHT22;38161;53.020;6.598;2023-03-14T14:42:52;7.70;99.90
52187;DHT22;38161;53.020;6.598;2023-03-14T14:45:19;7.60;99.90
52187;DHT22;38161;53.020;6.598;2023-03-14T14:47:54;7.40;99.90
52187;DHT22;38161;53.020;6.598;2023-03-14T14:50:36;7.40;99.90
52187;DHT22;38161;53.020;6.598;2023-03-14T14:55:55;7.20;99.90
52187;DHT22;38161;53.020;6.598;2023-03-14T14:58:29;7.10;99.90
52187;DHT22;38161;53.020;6.598;2023-03-14T15:01:20;7.10;99.90
52187;DHT22;38161;53.020;6.598;2023-03-14T15:03:50;7.00;99.90
52187;DHT22;38161;53.020;6.598;2023-03-14T15:06:17;6.90;99.90
52187;DHT22;38161;53.020;6.598;2023-03-14T15:08:44;6.90;99.90
52187;DHT22;38161;53.020;6.598;2023-03-14T15:11:22;6.80;99.90
52187;DHT22;38161;53.020;6.598;2023-03-14T15:13:50;6.70;99.90
52187;DHT22;38161;53.020;6.598;2023-03-14T15:16:27;6.70;99.90
52187;DHT22;38161;53.020;6.598;2023-03-14T15:18:55;6.70;99.90
52187;DHT22;38161;53.020;6.598;2023-03-14T15:21:22;6.80;99.90
52187;DHT22;38161;53.020;6.598;2023-03-14T15:23:48;6.90;99.90
52187;DHT22;38161;53.020;6.598;2023-03-14T15:26:17;7.00;99.90
52187;DHT22;38161;53.020;6.598;2023-03-14T15:28:43;7.00;99.90
52187;DHT22;38161;53.020;6.598;2023-03-14T15:31:10;6.90;99.90
52187;DHT22;38161;53.020;6.598;2023-03-14T15:33:36;6.80;99.90
52187;DHT22;38161;53.020;6.598;2023-03-14T15:36:03;6.80;99.90
52187;DHT22;38161;53.020;6.598;2023-03-14T15:38:29;6.80;99.90
52187;DHT22;38161;53.020;6.598;2023-03-14T15:40:55;6.90;99.90
52187;DHT22;38161;53.020;6.598;2023-03-14T15:43:21;6.90;99.90
52187;DHT22;38161;53.020;6.598;2023-03-14T15:45:47;7.00;99.90
52187;DHT22;38161;53.020;6.598;2023-03-14T15:48:21;7.00;99.90
52187;DHT22;38161;53.020;6.598;2023-03-14T15:50:47;6.90;99.90
52187;DHT22;38161;53.020;6.598;2023-03-14T15:53:13;6.80;99.90
52187;DHT22;38161;53.020;6.598;2023-03-14T15:55:39;6.70;99.90
52187;DHT22;38161;53.020;6.598;2023-03-14T15:58:05;6.60;99.90
52187;DHT22;38161;53.020;6.598;2023-03-14T16:00:30;6.50;99.90
52187;DHT22;38161;53.020;6.598;2023-03-14T16:02:57;6.40;99.90
52187;DHT22;38161;53.020;6.598;2023-03-14T16:05:23;6.30;99.90
52187;DHT22;38161;53.020;6.598;2023-03-14T16:07:48;6.20;99.90
52187;DHT22;38161;53.020;6.598;2023-03-14T16:10:15;6.10;99.90
52187;DHT22;38161;53.020;6.598;2023-03-14T16:12:42;6.00;99.90
52187;DHT22;38161;53.020;6.598;2023-03-14T16:15:09;5.90;99.90
52187;DHT22;38161;53.020;6.598;2023-03-14T16:17:35;5.90;99.90
52187;DHT22;38161;53.020;6.598;2023-03-14T16:20:03;5.90;99.90
52187;DHT22;38161;53.020;6.598;2023-03-14T16:22:29;5.80;99.90
52187;DHT22;38161;53.020;6.598;2023-03-14T16:25:01;5.70;99.90
52187;DHT22;38161;53.020;6.598;2023-03-14T16:27:27;5.70;99.90
52187;DHT22;38161;53.020;6.598;2023-03-14T16:29:53;5.60;99.90
52187;DHT22;38161;53.020;6.598;2023-03-14T16:32:18;5.40;99.90
52187;DHT22;38161;53.020;6.598;2023-03-14T16:34:44;5.40;99.90
52187;DHT22;38161;53.020;6.598;2023-03-14T16:37:13;5.30;99.90
52187;DHT22;38161;53.020;6.598;2023-03-14T16:39:39;5.20;99.90
52187;DHT22;38161;53.020;6.598;2023-03-14T16:42:04;5.10;99.90
52187;DHT22;38161;53.020;6.598;2023-03-14T16:44:30;5.00;99.90
52187;DHT22;38161;53.020;6.598;2023-03-14T16:46:56;4.90;99.90
52187;DHT22;38161;53.020;6.598;2023-03-14T16:49:22;4.80;99.90
52187;DHT22;38161;53.020;6.598;2023-03-14T16:51:47;4.80;99.90
52187;DHT22;38161;53.020;6.598;2023-03-14T16:54:13;4.70;99.90